createdAt,value
2017-11-18T00:00:28.192Z,38.47
2017-11-18T00:02:55.712Z,27.33
2017-11-18T00:05:23.980Z,25.27
2017-11-18T00:07:51.561Z,38.77
2017-11-18T00:10:19.829Z,32.97
2017-11-18T00:12:47.336Z,41.57
2017-11-18T00:15:16.002Z,33.73
2017-11-18T00:17:43.534Z,39.10
2017-11-18T00:20:11.057Z,31.30
2017-11-18T00:22:39.696Z,35.20
2017-11-18T00:25:08.720Z,35.60
2017-11-18T00:27:36.241Z,30.17
2017-11-18T00:30:03.770Z,41.90
2017-11-18T00:32:31.278Z,36.03
2017-11-18T00:34:59.198Z,40.93
2017-11-18T00:37:26.706Z,37.57
2017-11-18T00:39:54.265Z,37.13
2017-11-18T00:42:22.543Z,37.13
2017-11-18T00:44:50.056Z,33.50
2017-11-18T00:47:17.988Z,29.67
2017-11-18T00:49:45.884Z,34.93
2017-11-18T00:52:13.400Z,37.37
2017-11-18T00:54:41.681Z,48.13
2017-11-18T00:57:10.713Z,33.03
2017-11-18T00:59:39.354Z,38.60
2017-11-18T01:02:08.012Z,39.17
2017-11-18T01:04:36.275Z,41.40
2017-11-18T01:07:03.796Z,31.37
2017-11-18T01:09:31.303Z,37.53
2017-11-18T01:11:59.625Z,34.20
2017-11-18T01:14:27.896Z,32.33
2017-11-18T01:16:56.591Z,28.33
2017-11-18T01:19:24.857Z,34.80
2017-11-18T01:21:53.129Z,28.40
2017-11-18T01:24:21.413Z,30.50
2017-11-18T01:26:48.908Z,30.50
2017-11-18T01:29:17.584Z,26.77
2017-11-18T01:31:45.082Z,53.10
2017-11-18T01:34:12.618Z,60.30
2017-11-18T01:36:40.895Z,74.40
2017-11-18T01:39:09.557Z,85.17
2017-11-18T01:41:37.828Z,57.60
2017-11-18T01:44:06.128Z,85.60
2017-11-18T01:46:33.650Z,60.20
2017-11-18T01:49:02.313Z,41.40
2017-11-18T01:51:29.814Z,55.67
2017-11-18T01:53:58.115Z,58.43
2017-11-18T01:56:26.012Z,47.00
2017-11-18T01:58:53.908Z,48.17
2017-11-18T02:01:22.572Z,46.17
2017-11-18T02:03:50.089Z,33.93
2017-11-18T02:06:18.402Z,34.33
2017-11-18T02:08:45.923Z,68.07
2017-11-18T02:11:13.446Z,76.53
2017-11-18T02:13:40.957Z,62.73
2017-11-18T02:16:08.481Z,40.13
2017-11-18T02:18:35.989Z,53.73
2017-11-18T02:21:04.288Z,36.00
2017-11-18T02:23:32.561Z,38.60
2017-11-18T02:26:00.092Z,45.07
2017-11-18T02:28:27.985Z,36.47
2017-11-18T02:30:55.501Z,36.83
2017-11-18T02:33:22.996Z,44.23
2017-11-18T02:35:51.285Z,33.83
2017-11-18T02:38:18.785Z,49.30
2017-11-18T02:40:46.316Z,31.37
2017-11-18T02:43:13.825Z,36.10
2017-11-18T02:45:41.348Z,29.53
2017-11-18T02:48:08.857Z,27.20
2017-11-18T02:50:37.897Z,24.57
2017-11-18T02:53:05.393Z,35.90
2017-11-18T02:55:34.272Z,37.00
2017-11-18T02:58:02.549Z,27.27
2017-11-18T03:00:30.476Z,37.17
2017-11-18T03:02:57.987Z,37.33
2017-11-18T03:05:26.900Z,33.37
2017-11-18T03:07:54.400Z,30.23
2017-11-18T03:10:22.333Z,34.53
2017-11-18T03:12:50.227Z,36.30
2017-11-18T03:15:18.517Z,34.70
2017-11-18T03:17:46.013Z,35.27
2017-11-18T03:20:13.543Z,34.70
2017-11-18T03:22:41.826Z,38.93
2017-11-18T03:25:09.369Z,37.73
2017-11-18T03:27:36.877Z,37.63
2017-11-18T03:30:04.402Z,38.40
2017-11-18T03:32:31.909Z,31.70
2017-11-18T03:34:59.457Z,45.60
2017-11-18T03:37:27.732Z,39.27
2017-11-18T03:39:56.397Z,29.07
2017-11-18T03:42:24.300Z,43.40
2017-11-18T03:44:52.966Z,33.90
2017-11-18T03:47:21.239Z,45.60
2017-11-18T03:49:48.761Z,35.77
2017-11-18T03:52:16.660Z,50.63
2017-11-18T03:54:45.692Z,37.73
2017-11-18T03:57:13.194Z,37.17
2017-11-18T03:59:41.476Z,36.80
2017-11-18T04:02:09.768Z,38.83
2017-11-18T04:04:37.680Z,36.60
2017-11-18T04:07:05.608Z,35.07
2017-11-18T04:09:33.515Z,30.70
2017-11-18T04:12:01.808Z,41.07
2017-11-18T04:14:30.081Z,47.73
2017-11-18T04:16:58.005Z,44.20
2017-11-18T04:19:25.508Z,46.47
2017-11-18T04:21:53.028Z,33.97
2017-11-18T04:24:20.554Z,45.07
2017-11-18T04:26:48.080Z,41.47
2017-11-18T04:29:15.988Z,33.57
2017-11-18T04:31:43.513Z,40.40
2017-11-18T04:34:11.029Z,44.67
2017-11-18T04:36:38.547Z,37.40
2017-11-18T04:39:06.076Z,35.93
2017-11-18T04:41:33.602Z,38.13
2017-11-18T04:44:01.117Z,42.50
2017-11-18T04:46:29.067Z,31.70
2017-11-18T04:48:56.582Z,41.80
2017-11-18T04:51:24.854Z,43.40
2017-11-18T04:53:53.149Z,38.83
2017-11-18T04:56:20.653Z,40.80
2017-11-18T04:58:48.168Z,47.47
2017-11-18T05:01:17.185Z,43.30
2017-11-18T05:03:45.109Z,48.07
2017-11-18T05:06:13.029Z,50.07
2017-11-18T05:08:40.952Z,48.53
2017-11-18T05:11:09.229Z,46.63
2017-11-18T05:13:36.872Z,39.90
2017-11-18T05:16:04.397Z,43.20
2017-11-18T05:18:31.920Z,41.80
2017-11-18T05:20:59.432Z,44.20
2017-11-18T05:23:26.964Z,39.13
2017-11-18T05:25:54.485Z,42.47
2017-11-18T05:28:22.393Z,44.17
2017-11-18T05:30:49.917Z,47.37
2017-11-18T05:33:18.552Z,38.33
2017-11-18T05:35:47.434Z,40.27
2017-11-18T05:38:15.717Z,59.17
2017-11-18T05:40:43.240Z,44.93
2017-11-18T05:43:12.096Z,39.83
2017-11-18T05:45:40.393Z,42.80
2017-11-18T05:48:07.912Z,37.43
2017-11-18T05:50:35.456Z,57.73
2017-11-18T05:53:03.764Z,46.23
2017-11-18T05:55:32.075Z,51.27
2017-11-18T05:57:59.971Z,51.40
2017-11-18T06:00:28.829Z,50.93
2017-11-18T06:02:57.128Z,43.80
2017-11-18T06:05:24.630Z,64.43
2017-11-18T06:07:53.292Z,57.50
2017-11-18T06:10:20.809Z,52.47
2017-11-18T06:12:48.725Z,46.73
2017-11-18T06:15:16.988Z,43.67
2017-11-18T06:17:46.045Z,64.00
2017-11-18T06:20:13.655Z,59.40
2017-11-18T06:22:41.572Z,49.20
2017-11-18T06:25:09.108Z,41.30
2017-11-18T06:27:36.653Z,42.20
2017-11-18T06:30:04.166Z,55.63
2017-11-18T06:32:31.711Z,46.47
2017-11-18T06:35:00.376Z,61.93
2017-11-18T06:37:27.889Z,56.63
2017-11-18T06:39:56.212Z,63.83
2017-11-18T06:42:23.717Z,48.30
2017-11-18T06:44:51.661Z,40.50
2017-11-18T06:47:19.168Z,57.53
2017-11-18T06:49:46.692Z,63.83
2017-11-18T06:52:14.192Z,52.67
2017-11-18T06:54:41.732Z,43.97
2017-11-18T06:57:10.032Z,54.03
2017-11-18T06:59:38.921Z,57.13
2017-11-18T07:02:06.476Z,57.83
2017-11-18T07:04:35.372Z,52.03
2017-11-18T07:07:04.227Z,46.43
2017-11-18T07:09:32.149Z,51.63
2017-11-18T07:12:01.026Z,50.50
2017-11-18T07:14:28.963Z,66.97
2017-11-18T07:16:57.820Z,53.03
2017-11-18T07:19:25.370Z,58.00
2017-11-18T07:21:54.023Z,53.33
2017-11-18T07:24:21.917Z,45.03
2017-11-18T07:26:50.212Z,57.40
2017-11-18T07:29:17.711Z,69.57
2017-11-18T07:31:45.239Z,50.53
2017-11-18T07:34:13.514Z,67.23
2017-11-18T07:36:41.035Z,60.47
2017-11-18T07:39:09.668Z,55.60
2017-11-18T07:41:37.218Z,51.50
2017-11-18T07:44:04.737Z,83.20
2017-11-18T07:46:32.676Z,58.83
2017-11-18T07:49:00.181Z,70.43
2017-11-18T07:51:27.709Z,52.50
2017-11-18T07:53:55.229Z,65.77
2017-11-18T07:56:22.747Z,63.40
2017-11-18T07:58:50.265Z,59.80
2017-11-18T08:01:18.920Z,65.20
2017-11-18T08:03:46.421Z,66.13
2017-11-18T08:06:13.945Z,53.47
2017-11-18T08:08:42.212Z,55.47
2017-11-18T08:11:09.741Z,69.30
2017-11-18T08:13:37.639Z,59.00
2017-11-18T08:16:05.928Z,62.67
2017-11-18T08:18:33.447Z,44.63
2017-11-18T08:21:01.360Z,52.67
2017-11-18T08:23:30.583Z,51.50
2017-11-18T08:25:58.517Z,42.90
2017-11-18T08:28:27.405Z,36.83
2017-11-18T08:30:55.712Z,36.77
2017-11-18T08:33:23.223Z,49.00
2017-11-18T08:35:50.765Z,33.10
2017-11-18T08:38:19.058Z,35.27
2017-11-18T08:40:47.385Z,34.87
2017-11-18T08:43:14.960Z,39.40
2017-11-18T08:45:42.866Z,27.83
2017-11-18T08:48:11.165Z,35.43
2017-11-18T08:50:38.673Z,27.53
2017-11-18T08:53:06.212Z,30.33
2017-11-18T08:55:33.731Z,24.70
2017-11-18T08:58:01.257Z,24.60
2017-11-18T09:00:28.776Z,32.13
2017-11-18T09:02:56.319Z,28.40
2017-11-18T09:05:23.824Z,24.27
2017-11-18T09:07:51.369Z,23.37
2017-11-18T09:10:18.912Z,24.93
2017-11-18T09:12:46.857Z,22.43
2017-11-18T09:15:14.371Z,23.57
2017-11-18T09:17:42.649Z,29.80
2017-11-18T09:20:11.742Z,24.57
2017-11-18T09:22:40.393Z,22.83
2017-11-18T09:25:08.700Z,18.40
2017-11-18T09:27:36.213Z,20.50
2017-11-18T09:30:04.176Z,17.67
2017-11-18T09:32:32.065Z,24.97
2017-11-18T09:35:00.763Z,18.27
2017-11-18T09:37:28.277Z,13.33
2017-11-18T09:39:56.950Z,16.93
2017-11-18T09:42:24.464Z,17.33
2017-11-18T09:44:53.372Z,16.40
2017-11-18T09:47:20.885Z,26.20
2017-11-18T09:49:50.407Z,17.13
2017-11-18T09:52:18.701Z,23.20
2017-11-18T09:54:47.335Z,20.43
2017-11-18T09:57:14.868Z,21.97
2017-11-18T09:59:42.779Z,22.80
2017-11-18T10:02:10.303Z,20.60
2017-11-18T10:04:39.235Z,20.10
2017-11-18T10:07:06.803Z,20.63
2017-11-18T10:09:34.319Z,21.47
2017-11-18T10:12:02.248Z,18.57
2017-11-18T10:14:31.030Z,18.93
2017-11-18T10:16:58.590Z,18.90
2017-11-18T10:19:26.092Z,29.57
2017-11-18T10:21:54.019Z,18.97
2017-11-18T10:24:22.303Z,16.70
2017-11-18T10:26:49.873Z,20.67
2017-11-18T10:29:17.778Z,25.30
2017-11-18T10:31:45.417Z,24.40
2017-11-18T10:34:12.918Z,20.83
2017-11-18T10:36:40.485Z,18.47
2017-11-18T10:39:08.021Z,20.77
2017-11-18T10:41:35.589Z,23.57
2017-11-18T10:44:03.142Z,19.93
2017-11-18T10:46:31.469Z,20.73
2017-11-18T10:49:00.255Z,21.77
2017-11-18T10:51:30.151Z,18.37
2017-11-18T10:53:57.681Z,26.20
2017-11-18T10:56:25.978Z,23.73
2017-11-18T10:58:53.535Z,18.17
2017-11-18T11:01:21.440Z,20.90
2017-11-18T11:03:49.737Z,19.17
2017-11-18T11:06:18.004Z,27.47
2017-11-18T11:08:45.534Z,27.50
2017-11-18T11:11:13.040Z,18.67
2017-11-18T11:13:40.566Z,22.67
2017-11-18T11:16:08.088Z,20.17
2017-11-18T11:18:36.432Z,19.90
2017-11-18T11:21:03.961Z,31.10
2017-11-18T11:23:31.484Z,20.20
2017-11-18T11:25:59.380Z,24.97
2017-11-18T11:28:27.415Z,21.30
2017-11-18T11:30:55.707Z,19.80
2017-11-18T11:33:23.705Z,17.43
2017-11-18T11:35:52.556Z,19.43
2017-11-18T11:38:20.109Z,20.00
2017-11-18T11:40:47.611Z,20.33
2017-11-18T11:43:15.913Z,22.10
2017-11-18T11:45:44.568Z,19.87
2017-11-18T11:48:12.473Z,16.70
2017-11-18T11:50:39.986Z,15.77
2017-11-18T11:53:08.868Z,16.47
2017-11-18T11:55:37.904Z,15.20
2017-11-18T11:58:05.412Z,18.47
2017-11-18T12:00:33.725Z,17.53
2017-11-18T12:03:02.741Z,15.67
2017-11-18T12:05:30.674Z,16.30
2017-11-18T12:07:58.168Z,17.90
2017-11-18T12:10:27.196Z,11.10
2017-11-18T12:12:54.688Z,13.37
2017-11-18T12:15:22.217Z,12.47
2017-11-18T12:17:50.120Z,15.43
2017-11-18T12:20:17.681Z,9.97
2017-11-18T12:22:45.181Z,14.10
2017-11-18T12:25:12.698Z,12.60
2017-11-18T12:27:40.644Z,16.40
2017-11-18T12:30:08.915Z,13.20
2017-11-18T12:32:36.844Z,13.10
2017-11-18T12:35:04.357Z,11.73
2017-11-18T12:37:32.639Z,15.90
2017-11-18T12:40:00.159Z,12.00
2017-11-18T12:42:28.824Z,14.30
2017-11-18T12:44:56.348Z,13.40
2017-11-18T12:47:23.941Z,14.30
2017-11-18T12:49:52.590Z,15.37
2017-11-18T12:52:20.952Z,15.33
2017-11-18T12:54:48.893Z,21.47
2017-11-18T12:57:16.487Z,14.13
2017-11-18T12:59:44.808Z,12.60
2017-11-18T13:02:12.312Z,17.73
2017-11-18T13:04:40.988Z,17.83
2017-11-18T13:07:08.752Z,25.53
2017-11-18T13:09:37.455Z,15.13
2017-11-18T13:12:04.965Z,15.10
2017-11-18T13:14:32.489Z,17.30
2017-11-18T13:17:00.095Z,17.30
2017-11-18T13:19:29.020Z,15.63
2017-11-18T13:21:56.533Z,18.57
2017-11-18T13:24:24.037Z,17.13
2017-11-18T13:26:51.565Z,15.10
2017-11-18T13:29:20.216Z,17.63
2017-11-18T13:31:47.762Z,17.77
2017-11-18T13:34:15.281Z,10.80
2017-11-18T13:36:43.220Z,15.00
2017-11-18T13:39:11.503Z,14.83
2017-11-18T13:41:39.412Z,15.57
2017-11-18T13:44:06.916Z,15.20
2017-11-18T13:46:34.456Z,13.33
2017-11-18T13:49:01.967Z,11.40
2017-11-18T13:51:29.480Z,9.30
2017-11-18T13:53:56.984Z,12.00
2017-11-18T13:56:24.508Z,13.53
2017-11-18T13:58:53.144Z,19.57
2017-11-18T14:01:20.691Z,16.60
2017-11-18T14:03:48.964Z,16.73
2017-11-18T14:06:16.461Z,11.07
2017-11-18T14:08:43.982Z,12.13
2017-11-18T14:11:11.478Z,11.43
2017-11-18T14:13:39.781Z,11.73
2017-11-18T14:16:08.056Z,11.40
2017-11-18T14:18:35.592Z,9.07
2017-11-18T14:21:03.097Z,7.73
2017-11-18T14:23:30.619Z,8.40
2017-11-18T14:25:59.627Z,11.20
2017-11-18T14:28:27.133Z,10.00
2017-11-18T14:30:56.167Z,6.90
2017-11-18T14:33:23.680Z,8.87
2017-11-18T14:35:52.005Z,7.60
2017-11-18T14:38:19.510Z,11.00
2017-11-18T14:40:47.075Z,6.50
2017-11-18T14:43:15.924Z,9.80
2017-11-18T14:45:43.462Z,8.10
2017-11-18T14:48:10.961Z,9.80
2017-11-18T14:50:38.485Z,5.60
2017-11-18T14:53:07.120Z,12.07
2017-11-18T14:55:34.661Z,7.80
2017-11-18T14:58:03.539Z,8.33
2017-11-18T15:00:31.046Z,6.03
2017-11-18T15:02:58.556Z,7.33
2017-11-18T15:05:26.054Z,6.10
2017-11-18T15:07:53.581Z,10.13
2017-11-18T15:10:22.462Z,9.43
2017-11-18T15:12:49.982Z,10.20
2017-11-18T15:15:20.078Z,8.87
2017-11-18T15:17:51.256Z,6.67
2017-11-18T15:20:24.460Z,8.80
2017-11-18T15:22:58.113Z,5.67
2017-11-18T15:25:31.887Z,8.20
2017-11-18T15:28:05.007Z,5.87
2017-11-18T15:30:35.993Z,4.37
2017-11-18T15:33:03.508Z,10.40
2017-11-18T15:35:38.490Z,4.43
2017-11-18T15:38:12.656Z,7.33
2017-11-18T15:40:40.563Z,6.30
2017-11-18T15:43:08.060Z,5.30
2017-11-18T15:45:35.584Z,8.40
2017-11-18T15:48:10.029Z,9.30
2017-11-18T15:50:56.308Z,9.47
2017-11-18T15:53:39.531Z,7.47
2017-11-18T15:56:21.928Z,5.93
2017-11-18T15:59:04.337Z,7.97
2017-11-18T16:01:39.176Z,12.13
2017-11-18T16:04:13.068Z,9.87
2017-11-18T16:06:57.345Z,10.63
2017-11-18T16:09:24.953Z,7.33
2017-11-18T16:11:52.458Z,9.07
2017-11-18T16:14:21.132Z,6.63
2017-11-18T16:16:48.626Z,6.53
2017-11-18T16:19:16.168Z,8.50
2017-11-18T16:21:43.664Z,7.60
2017-11-18T16:24:11.158Z,8.53
2017-11-18T16:26:38.675Z,8.80
2017-11-18T16:29:06.181Z,6.63
2017-11-18T16:31:34.114Z,9.97
2017-11-18T16:34:01.603Z,7.57
2017-11-18T16:36:30.260Z,7.63
2017-11-18T16:38:57.751Z,7.87
2017-11-18T16:41:25.666Z,5.03
2017-11-18T16:43:53.169Z,12.33
2017-11-18T16:46:20.686Z,5.60
2017-11-18T16:48:48.186Z,8.53
2017-11-18T16:51:16.848Z,6.20
2017-11-18T16:53:44.424Z,8.93
2017-11-18T16:56:11.978Z,6.83
2017-11-18T16:58:39.869Z,9.47
2017-11-18T17:01:07.371Z,11.67
2017-11-18T17:03:36.277Z,10.17
2017-11-18T17:06:04.566Z,9.63
2017-11-18T17:08:32.484Z,9.90
2017-11-18T17:11:00.003Z,14.93
2017-11-18T17:13:28.994Z,9.43
2017-11-18T17:15:56.497Z,10.93
2017-11-18T17:18:24.016Z,10.60
2017-11-18T17:20:53.034Z,10.57
2017-11-18T17:23:21.961Z,10.00
2017-11-18T17:25:50.229Z,8.77
2017-11-18T17:28:18.943Z,12.37
2017-11-18T17:30:46.483Z,10.87
2017-11-18T17:33:20.541Z,10.70
2017-11-18T17:35:48.060Z,12.63
2017-11-18T17:38:16.709Z,11.07
2017-11-18T17:40:44.994Z,13.53
2017-11-18T17:43:12.507Z,14.47
2017-11-18T17:45:40.020Z,9.67
2017-11-18T17:48:07.516Z,12.67
2017-11-18T17:50:35.029Z,15.50
2017-11-18T17:53:02.536Z,10.57
2017-11-18T17:55:30.069Z,15.43
2017-11-18T17:57:57.563Z,15.20
2017-11-18T18:00:25.841Z,16.80
2017-11-18T18:02:53.784Z,17.70
2017-11-18T18:05:21.680Z,11.67
2017-11-18T18:07:49.961Z,15.00
2017-11-18T18:10:17.480Z,12.87
2017-11-18T18:12:45.006Z,11.60
2017-11-18T18:15:12.526Z,14.40
2017-11-18T18:17:40.817Z,18.70
2017-11-18T18:20:08.337Z,19.20
2017-11-18T18:22:37.509Z,14.53
2017-11-18T18:25:05.028Z,20.60
2017-11-18T18:27:33.883Z,21.87
2017-11-18T18:30:02.536Z,19.80
2017-11-18T18:32:30.437Z,14.00
2017-11-18T18:34:58.734Z,17.07
2017-11-18T18:37:27.017Z,10.40
2017-11-18T18:39:55.915Z,15.83
2017-11-18T18:42:23.412Z,12.90
2017-11-18T18:44:52.300Z,33.20
2017-11-18T18:47:20.191Z,13.97
2017-11-18T18:49:47.724Z,24.40
2017-11-18T18:52:16.016Z,17.83
2017-11-18T18:54:43.563Z,16.23
2017-11-18T18:57:11.456Z,17.20
2017-11-18T18:59:38.958Z,15.87
2017-11-18T19:02:06.504Z,20.00
2017-11-18T19:04:34.006Z,16.37
2017-11-18T19:07:02.880Z,18.23
2017-11-18T19:09:30.407Z,19.83
2017-11-18T19:11:57.957Z,19.33
2017-11-18T19:14:26.976Z,19.03
2017-11-18T19:16:54.510Z,13.33
2017-11-18T19:19:22.795Z,18.23
2017-11-18T19:21:51.100Z,21.17
2017-11-18T19:24:18.612Z,13.77
2017-11-18T19:26:46.549Z,13.00
2017-11-18T19:29:14.049Z,13.63
2017-11-18T19:31:41.972Z,9.63
2017-11-18T19:34:09.500Z,13.80
2017-11-18T19:36:38.148Z,11.70
2017-11-18T19:39:06.084Z,14.40
2017-11-18T19:41:33.602Z,12.23
2017-11-18T19:44:01.130Z,10.43
2017-11-18T19:46:29.985Z,12.27
2017-11-18T19:48:57.513Z,21.70
2017-11-18T19:51:25.025Z,13.07
2017-11-18T19:53:53.318Z,8.70
2017-11-18T19:56:20.812Z,14.87
2017-11-18T19:58:48.720Z,9.23
2017-11-18T20:01:16.243Z,10.00
2017-11-18T20:03:43.857Z,11.07
2017-11-18T20:06:11.770Z,8.57
2017-11-18T20:08:39.392Z,12.37
2017-11-18T20:11:08.044Z,10.03
2017-11-18T20:13:35.564Z,11.90
2017-11-18T20:16:03.124Z,11.53
2017-11-18T20:18:30.636Z,10.67
2017-11-18T20:20:58.564Z,13.50
2017-11-18T20:23:26.832Z,9.33
2017-11-18T20:25:55.121Z,10.67
2017-11-18T20:28:22.629Z,11.13
2017-11-18T20:30:50.545Z,9.73
2017-11-18T20:33:18.212Z,9.37
2017-11-18T20:35:45.725Z,11.23
2017-11-18T20:38:14.352Z,12.37
2017-11-18T20:40:42.273Z,12.97
2017-11-18T20:43:10.292Z,12.43
2017-11-18T20:45:37.953Z,12.40
2017-11-18T20:48:06.596Z,8.27
2017-11-18T20:50:34.103Z,13.33
2017-11-18T20:53:01.625Z,12.83
2017-11-18T20:55:29.120Z,12.70
2017-11-18T20:57:56.645Z,11.23
2017-11-18T21:00:24.536Z,16.13
2017-11-18T21:02:52.185Z,13.40
2017-11-18T21:05:19.680Z,14.00
2017-11-18T21:07:47.233Z,11.80
2017-11-18T21:10:14.732Z,9.20
2017-11-18T21:12:42.264Z,9.63
2017-11-18T21:15:10.542Z,7.70
2017-11-18T21:17:38.853Z,14.37
2017-11-18T21:20:06.358Z,13.70
2017-11-18T21:22:34.641Z,9.20
2017-11-18T21:25:02.136Z,9.17
2017-11-18T21:27:29.653Z,9.43
2017-11-18T21:29:58.672Z,10.90
2017-11-18T21:32:26.203Z,10.30
2017-11-18T21:34:54.472Z,9.97
2017-11-18T21:37:22.764Z,18.40
2017-11-18T21:39:50.281Z,9.10
2017-11-18T21:42:18.204Z,10.13
2017-11-18T21:44:45.741Z,13.10
2017-11-18T21:47:14.372Z,14.57
2017-11-18T21:49:41.893Z,9.20
2017-11-18T21:52:10.535Z,11.50
2017-11-18T21:54:39.552Z,8.57
2017-11-18T21:57:07.047Z,9.17
2017-11-18T21:59:34.581Z,10.53
2017-11-18T22:02:02.083Z,9.10
2017-11-18T22:04:29.625Z,9.87
2017-11-18T22:06:57.161Z,19.33
2017-11-18T22:09:24.670Z,9.53
2017-11-18T22:11:52.202Z,8.70
2017-11-18T22:14:21.222Z,8.53
2017-11-18T22:16:48.760Z,8.20
2017-11-18T22:19:17.054Z,7.20
2017-11-18T22:21:44.590Z,9.87
2017-11-18T22:24:12.506Z,7.47
2017-11-18T22:26:40.032Z,6.00
2017-11-18T22:29:07.548Z,7.63
2017-11-18T22:31:35.077Z,10.17
2017-11-18T22:34:02.589Z,12.80
2017-11-18T22:36:30.112Z,9.10
2017-11-18T22:38:57.605Z,7.97
2017-11-18T22:41:25.530Z,7.23
2017-11-18T22:43:53.042Z,7.87
2017-11-18T22:46:20.579Z,6.87
2017-11-18T22:48:49.432Z,8.57
2017-11-18T22:51:18.104Z,9.00
2017-11-18T22:53:45.627Z,8.50
2017-11-18T22:56:13.115Z,17.30
2017-11-18T22:58:42.006Z,8.80
2017-11-18T23:01:09.504Z,9.07
2017-11-18T23:03:37.026Z,9.83
2017-11-18T23:06:04.918Z,9.37
2017-11-18T23:08:32.829Z,6.70
2017-11-18T23:11:00.333Z,9.00
2017-11-18T23:13:28.608Z,7.07
2017-11-18T23:15:56.133Z,7.63
2017-11-18T23:18:23.657Z,8.00
2017-11-18T23:20:51.176Z,7.13
2017-11-18T23:23:19.852Z,8.90
2017-11-18T23:25:48.136Z,8.63
2017-11-18T23:28:16.404Z,8.33
2017-11-18T23:30:44.681Z,13.17
2017-11-18T23:33:12.180Z,7.73
2017-11-18T23:35:39.704Z,8.17
2017-11-18T23:38:07.208Z,7.83
2017-11-18T23:40:34.725Z,7.33
2017-11-18T23:43:02.221Z,7.63
2017-11-18T23:45:29.736Z,8.30
2017-11-18T23:47:57.638Z,9.20
2017-11-18T23:50:25.163Z,9.77
2017-11-18T23:52:52.665Z,8.60
2017-11-18T23:55:20.181Z,10.07
2017-11-18T23:57:48.079Z,11.00
